Riverdale, North Dakota
Current Conditions -  °F | °C
As of 6:15 AM on Saturday 25 Oct 2014 (Local Time) from KHZE Reporting Station
Broken Clouds Broken Clouds  
Wind Chill: 39°   Ceiling: 12000
Heat Index: 39°   Visibility: 10mi
Dew Point: 32°   Wind: 0mph
Humidity: 75%   Direction: NA
Pressure: 30.12"   Gusts: NA
Location:  47.5°N, 101.37°W
Report Text: KHZE 251115Z AUTO 00000KT 10SM BKN120 04/00 A3012 RMK AO2
Loading
Personal Weather Stations






























Interactive Weather Map New forecast layout! Learn more

10-Day Weather Forecast

Advertisements
Track Severe Weather on mobile